sensor_id;sensor_type;location;lat;lon;timestamp;P1;durP1;ratioP1;P2;durP2;ratioP2
59569;SDS011;45393;44.646;10.900;2022-11-21T00:03:38;90.00;;;54.17;;
59569;SDS011;45393;44.646;10.900;2022-11-21T00:06:04;83.10;;;52.10;;
59569;SDS011;45393;44.646;10.900;2022-11-21T00:08:30;89.27;;;53.30;;
59569;SDS011;45393;44.646;10.900;2022-11-21T00:11:00;81.13;;;51.90;;
59569;SDS011;45393;44.646;10.900;2022-11-21T00:13:26;76.03;;;49.40;;
59569;SDS011;45393;44.646;10.900;2022-11-21T00:15:52;81.03;;;49.97;;
59569;SDS011;45393;44.646;10.900;2022-11-21T00:18:18;88.70;;;53.30;;
59569;SDS011;45393;44.646;10.900;2022-11-21T00:20:44;82.80;;;50.90;;
59569;SDS011;45393;44.646;10.900;2022-11-21T00:23:10;78.63;;;48.70;;
59569;SDS011;45393;44.646;10.900;2022-11-21T00:25:37;87.13;;;51.30;;
59569;SDS011;45393;44.646;10.900;2022-11-21T00:28:04;80.90;;;49.83;;
59569;SDS011;45393;44.646;10.900;2022-11-21T00:30:30;78.33;;;52.47;;
59569;SDS011;45393;44.646;10.900;2022-11-21T00:32:59;94.43;;;64.37;;
59569;SDS011;45393;44.646;10.900;2022-11-21T00:35:25;88.17;;;62.87;;
59569;SDS011;45393;44.646;10.900;2022-11-21T00:37:51;91.43;;;62.10;;
59569;SDS011;45393;44.646;10.900;2022-11-21T00:40:18;85.03;;;62.13;;
59569;SDS011;45393;44.646;10.900;2022-11-21T00:42:44;85.03;;;59.03;;
59569;SDS011;45393;44.646;10.900;2022-11-21T00:45:10;82.23;;;56.30;;
59569;SDS011;45393;44.646;10.900;2022-11-21T00:47:36;62.53;;;43.57;;
59569;SDS011;45393;44.646;10.900;2022-11-21T00:50:02;60.47;;;43.43;;
59569;SDS011;45393;44.646;10.900;2022-11-21T00:52:28;62.33;;;43.40;;
59569;SDS011;45393;44.646;10.900;2022-11-21T00:54:54;61.23;;;42.87;;
59569;SDS011;45393;44.646;10.900;2022-11-21T00:57:20;63.77;;;42.60;;
59569;SDS011;45393;44.646;10.900;2022-11-21T00:59:47;67.57;;;46.00;;
59569;SDS011;45393;44.646;10.900;2022-11-21T01:02:13;70.80;;;47.00;;
59569;SDS011;45393;44.646;10.900;2022-11-21T01:04:39;69.57;;;48.37;;
59569;SDS011;45393;44.646;10.900;2022-11-21T01:07:05;61.57;;;43.80;;
59569;SDS011;45393;44.646;10.900;2022-11-21T01:09:31;59.10;;;42.30;;
59569;SDS011;45393;44.646;10.900;2022-11-21T01:11:59;69.37;;;46.40;;
59569;SDS011;45393;44.646;10.900;2022-11-21T01:14:25;70.07;;;46.23;;
59569;SDS011;45393;44.646;10.900;2022-11-21T01:16:51;64.30;;;45.30;;
59569;SDS011;45393;44.646;10.900;2022-11-21T01:19:17;61.77;;;42.37;;
59569;SDS011;45393;44.646;10.900;2022-11-21T01:21:43;54.40;;;40.23;;
59569;SDS011;45393;44.646;10.900;2022-11-21T01:24:10;61.03;;;40.47;;
59569;SDS011;45393;44.646;10.900;2022-11-21T01:26:36;63.13;;;43.87;;
59569;SDS011;45393;44.646;10.900;2022-11-21T01:29:02;57.97;;;40.23;;
59569;SDS011;45393;44.646;10.900;2022-11-21T01:31:28;51.80;;;36.50;;
59569;SDS011;45393;44.646;10.900;2022-11-21T01:33:56;48.30;;;35.67;;
59569;SDS011;45393;44.646;10.900;2022-11-21T01:36:32;50.73;;;35.83;;
59569;SDS011;45393;44.646;10.900;2022-11-21T01:38:59;56.37;;;38.37;;
59569;SDS011;45393;44.646;10.900;2022-11-21T01:41:31;53.67;;;39.20;;
59569;SDS011;45393;44.646;10.900;2022-11-21T01:44:00;56.43;;;40.60;;
59569;SDS011;45393;44.646;10.900;2022-11-21T01:46:27;51.10;;;36.80;;
59569;SDS011;45393;44.646;10.900;2022-11-21T01:53:59;60.10;;;46.73;;
59569;SDS011;45393;44.646;10.900;2022-11-21T01:56:26;54.27;;;41.77;;
59569;SDS011;45393;44.646;10.900;2022-11-21T01:58:54;56.70;;;42.93;;
59569;SDS011;45393;44.646;10.900;2022-11-21T02:01:21;51.67;;;40.03;;
59569;SDS011;45393;44.646;10.900;2022-11-21T02:03:48;59.33;;;44.37;;
59569;SDS011;45393;44.646;10.900;2022-11-21T02:06:14;62.73;;;49.07;;
59569;SDS011;45393;44.646;10.900;2022-11-21T02:08:41;61.97;;;46.97;;
59569;SDS011;45393;44.646;10.900;2022-11-21T02:13:36;72.43;;;53.87;;
59569;SDS011;45393;44.646;10.900;2022-11-21T02:16:03;72.63;;;52.27;;
59569;SDS011;45393;44.646;10.900;2022-11-21T02:18:29;75.93;;;56.00;;
59569;SDS011;45393;44.646;10.900;2022-11-21T02:20:58;77.23;;;56.67;;
59569;SDS011;45393;44.646;10.900;2022-11-21T02:25:56;68.23;;;51.00;;
59569;SDS011;45393;44.646;10.900;2022-11-21T02:28:22;67.27;;;52.37;;
59569;SDS011;45393;44.646;10.900;2022-11-21T02:30:49;72.83;;;53.57;;
59569;SDS011;45393;44.646;10.900;2022-11-21T02:33:15;77.93;;;57.40;;
59569;SDS011;45393;44.646;10.900;2022-11-21T02:35:42;63.67;;;48.67;;
59569;SDS011;45393;44.646;10.900;2022-11-21T02:40:41;65.23;;;50.37;;
59569;SDS011;45393;44.646;10.900;2022-11-21T02:45:44;47.13;;;36.23;;
59569;SDS011;45393;44.646;10.900;2022-11-21T02:48:10;44.50;;;32.43;;
59569;SDS011;45393;44.646;10.900;2022-11-21T02:50:40;37.07;;;29.47;;
59569;SDS011;45393;44.646;10.900;2022-11-21T02:53:08;40.07;;;29.90;;
59569;SDS011;45393;44.646;10.900;2022-11-21T02:55:35;42.53;;;31.10;;
59569;SDS011;45393;44.646;10.900;2022-11-21T02:58:02;41.00;;;31.00;;
59569;SDS011;45393;44.646;10.900;2022-11-21T03:00:28;44.40;;;32.20;;
59569;SDS011;45393;44.646;10.900;2022-11-21T03:02:54;41.17;;;29.97;;
59569;SDS011;45393;44.646;10.900;2022-11-21T03:05:21;46.27;;;32.93;;
59569;SDS011;45393;44.646;10.900;2022-11-21T03:07:47;43.20;;;31.87;;
59569;SDS011;45393;44.646;10.900;2022-11-21T03:10:14;44.60;;;32.80;;
59569;SDS011;45393;44.646;10.900;2022-11-21T03:12:40;40.73;;;30.57;;
59569;SDS011;45393;44.646;10.900;2022-11-21T03:15:07;39.37;;;29.70;;
59569;SDS011;45393;44.646;10.900;2022-11-21T03:17:34;36.10;;;27.17;;
59569;SDS011;45393;44.646;10.900;2022-11-21T03:20:00;38.47;;;26.87;;
59569;SDS011;45393;44.646;10.900;2022-11-21T03:22:26;31.40;;;23.40;;
59569;SDS011;45393;44.646;10.900;2022-11-21T03:24:52;32.40;;;24.20;;
59569;SDS011;45393;44.646;10.900;2022-11-21T03:27:18;34.50;;;25.83;;
59569;SDS011;45393;44.646;10.900;2022-11-21T03:29:44;32.90;;;24.53;;
59569;SDS011;45393;44.646;10.900;2022-11-21T03:32:10;31.37;;;24.17;;
59569;SDS011;45393;44.646;10.900;2022-11-21T03:34:36;34.23;;;23.30;;
59569;SDS011;45393;44.646;10.900;2022-11-21T03:37:03;30.83;;;23.77;;
59569;SDS011;45393;44.646;10.900;2022-11-21T03:39:29;27.33;;;21.93;;
59569;SDS011;45393;44.646;10.900;2022-11-21T03:41:55;32.37;;;23.63;;
59569;SDS011;45393;44.646;10.900;2022-11-21T03:44:21;27.10;;;21.77;;
59569;SDS011;45393;44.646;10.900;2022-11-21T03:46:47;31.13;;;24.00;;
59569;SDS011;45393;44.646;10.900;2022-11-21T03:49:13;33.90;;;23.90;;
59569;SDS011;45393;44.646;10.900;2022-11-21T03:51:42;37.97;;;28.77;;
59569;SDS011;45393;44.646;10.900;2022-11-21T03:54:09;33.10;;;25.33;;
59569;SDS011;45393;44.646;10.900;2022-11-21T03:56:35;35.67;;;27.97;;
59569;SDS011;45393;44.646;10.900;2022-11-21T03:59:03;38.70;;;30.47;;
59569;SDS011;45393;44.646;10.900;2022-11-21T04:01:29;37.00;;;29.53;;
59569;SDS011;45393;44.646;10.900;2022-11-21T04:03:55;43.20;;;34.50;;
59569;SDS011;45393;44.646;10.900;2022-11-21T04:06:22;44.43;;;35.37;;
59569;SDS011;45393;44.646;10.900;2022-11-21T04:08:48;47.73;;;37.23;;
59569;SDS011;45393;44.646;10.900;2022-11-21T04:11:14;42.27;;;33.03;;
59569;SDS011;45393;44.646;10.900;2022-11-21T04:13:40;45.90;;;34.67;;
59569;SDS011;45393;44.646;10.900;2022-11-21T04:16:06;45.27;;;35.10;;
59569;SDS011;45393;44.646;10.900;2022-11-21T04:18:33;51.00;;;37.20;;
59569;SDS011;45393;44.646;10.900;2022-11-21T04:21:03;38.70;;;30.10;;
59569;SDS011;45393;44.646;10.900;2022-11-21T04:23:30;44.00;;;33.50;;
59569;SDS011;45393;44.646;10.900;2022-11-21T04:25:56;37.17;;;29.53;;
59569;SDS011;45393;44.646;10.900;2022-11-21T04:28:22;43.70;;;31.90;;
59569;SDS011;45393;44.646;10.900;2022-11-21T04:30:49;42.33;;;32.43;;
59569;SDS011;45393;44.646;10.900;2022-11-21T04:33:15;41.27;;;31.53;;
59569;SDS011;45393;44.646;10.900;2022-11-21T04:35:42;40.90;;;30.50;;
59569;SDS011;45393;44.646;10.900;2022-11-21T04:38:08;40.07;;;31.73;;
59569;SDS011;45393;44.646;10.900;2022-11-21T04:40:34;41.80;;;33.40;;
59569;SDS011;45393;44.646;10.900;2022-11-21T04:43:01;49.27;;;38.50;;
59569;SDS011;45393;44.646;10.900;2022-11-21T04:45:27;58.30;;;43.30;;
59569;SDS011;45393;44.646;10.900;2022-11-21T04:47:53;52.07;;;41.57;;
59569;SDS011;45393;44.646;10.900;2022-11-21T04:50:19;62.53;;;49.50;;
59569;SDS011;45393;44.646;10.900;2022-11-21T04:52:49;62.07;;;47.83;;
59569;SDS011;45393;44.646;10.900;2022-11-21T04:55:15;65.97;;;51.47;;
59569;SDS011;45393;44.646;10.900;2022-11-21T04:57:41;62.17;;;47.80;;
59569;SDS011;45393;44.646;10.900;2022-11-21T05:00:08;66.97;;;50.87;;
59569;SDS011;45393;44.646;10.900;2022-11-21T05:02:34;77.60;;;56.83;;
59569;SDS011;45393;44.646;10.900;2022-11-21T05:05:00;59.83;;;45.37;;
59569;SDS011;45393;44.646;10.900;2022-11-21T05:07:26;53.23;;;42.93;;
59569;SDS011;45393;44.646;10.900;2022-11-21T05:09:52;56.47;;;45.50;;
59569;SDS011;45393;44.646;10.900;2022-11-21T05:12:18;59.47;;;46.23;;
59569;SDS011;45393;44.646;10.900;2022-11-21T05:15:03;55.30;;;42.10;;
59569;SDS011;45393;44.646;10.900;2022-11-21T05:17:29;52.13;;;41.67;;
59569;SDS011;45393;44.646;10.900;2022-11-21T05:19:55;63.20;;;47.53;;
59569;SDS011;45393;44.646;10.900;2022-11-21T05:22:21;59.40;;;44.53;;
59569;SDS011;45393;44.646;10.900;2022-11-21T05:24:47;60.27;;;44.30;;
59569;SDS011;45393;44.646;10.900;2022-11-21T05:27:14;58.90;;;44.83;;
59569;SDS011;45393;44.646;10.900;2022-11-21T05:29:40;61.17;;;45.83;;
59569;SDS011;45393;44.646;10.900;2022-11-21T05:32:06;60.67;;;45.13;;
59569;SDS011;45393;44.646;10.900;2022-11-21T05:34:32;68.13;;;48.43;;
59569;SDS011;45393;44.646;10.900;2022-11-21T05:36:58;79.17;;;54.93;;
59569;SDS011;45393;44.646;10.900;2022-11-21T05:39:24;69.53;;;48.17;;
59569;SDS011;45393;44.646;10.900;2022-11-21T05:41:50;61.03;;;44.60;;
59569;SDS011;45393;44.646;10.900;2022-11-21T05:44:17;70.67;;;48.07;;
59569;SDS011;45393;44.646;10.900;2022-11-21T05:46:43;70.00;;;45.23;;
59569;SDS011;45393;44.646;10.900;2022-11-21T05:49:09;78.60;;;51.47;;
59569;SDS011;45393;44.646;10.900;2022-11-21T05:51:35;90.87;;;58.23;;
59569;SDS011;45393;44.646;10.900;2022-11-21T05:54:02;76.63;;;51.50;;
59569;SDS011;45393;44.646;10.900;2022-11-21T05:56:28;89.00;;;57.40;;
59569;SDS011;45393;44.646;10.900;2022-11-21T05:58:54;84.50;;;56.20;;
59569;SDS011;45393;44.646;10.900;2022-11-21T06:01:21;91.53;;;57.03;;
59569;SDS011;45393;44.646;10.900;2022-11-21T06:04:06;99.50;;;61.40;;
59569;SDS011;45393;44.646;10.900;2022-11-21T06:06:32;83.90;;;54.93;;
59569;SDS011;45393;44.646;10.900;2022-11-21T06:08:58;98.57;;;60.83;;
59569;SDS011;45393;44.646;10.900;2022-11-21T06:11:25;86.47;;;59.10;;
59569;SDS011;45393;44.646;10.900;2022-11-21T06:13:51;104.07;;;63.97;;
59569;SDS011;45393;44.646;10.900;2022-11-21T06:16:17;102.10;;;65.57;;
59569;SDS011;45393;44.646;10.900;2022-11-21T06:18:48;95.30;;;62.73;;
59569;SDS011;45393;44.646;10.900;2022-11-21T06:21:17;104.90;;;65.90;;
59569;SDS011;45393;44.646;10.900;2022-11-21T06:23:44;92.17;;;58.47;;
59569;SDS011;45393;44.646;10.900;2022-11-21T06:26:11;86.63;;;57.37;;
59569;SDS011;45393;44.646;10.900;2022-11-21T06:28:38;79.43;;;54.13;;
59569;SDS011;45393;44.646;10.900;2022-11-21T06:31:06;101.83;;;61.87;;
59569;SDS011;45393;44.646;10.900;2022-11-21T06:33:32;81.23;;;53.90;;
